sensor_id;sensor_type;location;lat;lon;timestamp;temperature;humidity
66213;SHT31;53015;50.046;8.238;2024-02-26T00:00:56;8.46;73.18
66213;SHT31;53015;50.046;8.238;2024-02-26T00:03:22;8.53;72.76
66213;SHT31;53015;50.046;8.238;2024-02-26T00:05:47;8.49;73.22
66213;SHT31;53015;50.046;8.238;2024-02-26T00:08:13;8.50;72.50
66213;SHT31;53015;50.046;8.238;2024-02-26T00:10:39;8.46;73.01
66213;SHT31;53015;50.046;8.238;2024-02-26T00:13:05;8.49;72.24
66213;SHT31;53015;50.046;8.238;2024-02-26T00:15:30;8.46;72.70
66213;SHT31;53015;50.046;8.238;2024-02-26T00:17:56;8.49;72.60
66213;SHT31;53015;50.046;8.238;2024-02-26T00:20:21;8.50;72.44
66213;SHT31;53015;50.046;8.238;2024-02-26T00:22:47;8.52;72.31
66213;SHT31;53015;50.046;8.238;2024-02-26T00:25:13;8.60;71.80
66213;SHT31;53015;50.046;8.238;2024-02-26T00:27:40;8.62;71.85
66213;SHT31;53015;50.046;8.238;2024-02-26T00:30:06;8.66;71.89
66213;SHT31;53015;50.046;8.238;2024-02-26T00:32:32;8.67;71.90
66213;SHT31;53015;50.046;8.238;2024-02-26T00:34:57;8.70;72.19
66213;SHT31;53015;50.046;8.238;2024-02-26T00:37:23;8.67;72.55
66213;SHT31;53015;50.046;8.238;2024-02-26T00:39:48;8.73;72.64
66213;SHT31;53015;50.046;8.238;2024-02-26T00:42:14;8.90;73.32
66213;SHT31;53015;50.046;8.238;2024-02-26T00:44:40;9.08;73.01
66213;SHT31;53015;50.046;8.238;2024-02-26T00:47:06;8.91;72.22
66213;SHT31;53015;50.046;8.238;2024-02-26T00:49:33;9.01;73.09
66213;SHT31;53015;50.046;8.238;2024-02-26T00:51:58;9.07;73.68
66213;SHT31;53015;50.046;8.238;2024-02-26T00:54:24;9.00;73.07
66213;SHT31;53015;50.046;8.238;2024-02-26T00:56:49;8.90;73.62
66213;SHT31;53015;50.046;8.238;2024-02-26T00:59:15;9.04;73.25
66213;SHT31;53015;50.046;8.238;2024-02-26T01:01:42;9.13;73.13
66213;SHT31;53015;50.046;8.238;2024-02-26T01:04:07;8.97;74.15
66213;SHT31;53015;50.046;8.238;2024-02-26T01:06:33;8.94;74.26
66213;SHT31;53015;50.046;8.238;2024-02-26T01:08:58;8.79;75.00
66213;SHT31;53015;50.046;8.238;2024-02-26T01:11:24;8.70;74.62
66213;SHT31;53015;50.046;8.238;2024-02-26T01:13:49;8.59;74.13
66213;SHT31;53015;50.046;8.238;2024-02-26T01:16:15;8.72;74.03
66213;SHT31;53015;50.046;8.238;2024-02-26T01:18:42;8.87;74.83
66213;SHT31;53015;50.046;8.238;2024-02-26T01:21:07;8.84;73.95
66213;SHT31;53015;50.046;8.238;2024-02-26T01:23:33;8.69;73.24
66213;SHT31;53015;50.046;8.238;2024-02-26T01:25:58;8.62;73.41
66213;SHT31;53015;50.046;8.238;2024-02-26T01:28:24;8.46;73.46
66213;SHT31;53015;50.046;8.238;2024-02-26T01:30:49;8.42;73.75
66213;SHT31;53015;50.046;8.238;2024-02-26T01:33:15;8.39;73.36
66213;SHT31;53015;50.046;8.238;2024-02-26T01:35:42;8.45;73.83
66213;SHT31;53015;50.046;8.238;2024-02-26T01:38:07;8.52;73.85
66213;SHT31;53015;50.046;8.238;2024-02-26T01:40:33;8.46;73.45
66213;SHT31;53015;50.046;8.238;2024-02-26T01:42:59;8.55;73.41
66213;SHT31;53015;50.046;8.238;2024-02-26T01:45:25;8.59;73.22
66213;SHT31;53015;50.046;8.238;2024-02-26T01:47:50;8.60;73.57
66213;SHT31;53015;50.046;8.238;2024-02-26T01:50:16;8.60;73.60
66213;SHT31;53015;50.046;8.238;2024-02-26T01:52:44;8.58;73.48
66213;SHT31;53015;50.046;8.238;2024-02-26T01:55:09;8.58;73.68
66213;SHT31;53015;50.046;8.238;2024-02-26T01:57:35;8.65;73.70
66213;SHT31;53015;50.046;8.238;2024-02-26T02:00:01;8.67;73.50
66213;SHT31;53015;50.046;8.238;2024-02-26T02:02:26;8.65;73.08
66213;SHT31;53015;50.046;8.238;2024-02-26T02:04:52;8.70;73.24
66213;SHT31;53015;50.046;8.238;2024-02-26T02:07:18;8.62;73.44
66213;SHT31;53015;50.046;8.238;2024-02-26T02:09:45;8.62;73.97
66213;SHT31;53015;50.046;8.238;2024-02-26T02:12:11;8.70;74.01
66213;SHT31;53015;50.046;8.238;2024-02-26T02:14:37;8.73;74.21
66213;SHT31;53015;50.046;8.238;2024-02-26T02:17:02;8.67;74.21
66213;SHT31;53015;50.046;8.238;2024-02-26T02:19:28;8.60;74.32
66213;SHT31;53015;50.046;8.238;2024-02-26T02:21:55;8.48;74.19
66213;SHT31;53015;50.046;8.238;2024-02-26T02:24:20;8.42;74.74
66213;SHT31;53015;50.046;8.238;2024-02-26T02:26:46;8.42;74.03
66213;SHT31;53015;50.046;8.238;2024-02-26T02:29:12;8.44;74.55
66213;SHT31;53015;50.046;8.238;2024-02-26T02:31:38;8.38;74.50
66213;SHT31;53015;50.046;8.238;2024-02-26T02:34:03;8.48;74.95
66213;SHT31;53015;50.046;8.238;2024-02-26T02:36:29;8.53;74.94
66213;SHT31;53015;50.046;8.238;2024-02-26T02:38:56;8.66;74.69
66213;SHT31;53015;50.046;8.238;2024-02-26T02:41:21;8.56;74.15
66213;SHT31;53015;50.046;8.238;2024-02-26T02:43:47;8.49;74.60
66213;SHT31;53015;50.046;8.238;2024-02-26T02:46:12;8.34;75.18
66213;SHT31;53015;50.046;8.238;2024-02-26T02:48:38;8.31;75.36
66213;SHT31;53015;50.046;8.238;2024-02-26T02:51:04;8.29;75.07
66213;SHT31;53015;50.046;8.238;2024-02-26T02:53:30;8.34;75.61
66213;SHT31;53015;50.046;8.238;2024-02-26T02:55:57;8.56;75.93
66213;SHT31;53015;50.046;8.238;2024-02-26T02:58:22;8.50;76.01
66213;SHT31;53015;50.046;8.238;2024-02-26T03:00:48;8.50;76.56
66213;SHT31;53015;50.046;8.238;2024-02-26T03:03:14;8.46;76.41
66213;SHT31;53015;50.046;8.238;2024-02-26T03:05:39;8.48;76.58
66213;SHT31;53015;50.046;8.238;2024-02-26T03:08:05;8.34;76.49
66213;SHT31;53015;50.046;8.238;2024-02-26T03:10:30;8.45;76.65
66213;SHT31;53015;50.046;8.238;2024-02-26T03:12:57;8.50;77.10
66213;SHT31;53015;50.046;8.238;2024-02-26T03:15:23;8.58;77.42
66213;SHT31;53015;50.046;8.238;2024-02-26T03:17:48;8.62;77.56
66213;SHT31;53015;50.046;8.238;2024-02-26T03:20:14;8.46;77.49
66213;SHT31;53015;50.046;8.238;2024-02-26T03:22:41;8.41;78.86
66213;SHT31;53015;50.046;8.238;2024-02-26T03:25:07;8.53;78.94
66213;SHT31;53015;50.046;8.238;2024-02-26T03:27:33;8.45;78.52
66213;SHT31;53015;50.046;8.238;2024-02-26T03:30:00;8.44;78.61
66213;SHT31;53015;50.046;8.238;2024-02-26T03:32:25;8.39;80.44
66213;SHT31;53015;50.046;8.238;2024-02-26T03:34:51;8.44;80.97
66213;SHT31;53015;50.046;8.238;2024-02-26T03:37:17;8.53;81.34
66213;SHT31;53015;50.046;8.238;2024-02-26T03:39:42;8.31;82.71
66213;SHT31;53015;50.046;8.238;2024-02-26T03:42:08;8.27;82.38
66213;SHT31;53015;50.046;8.238;2024-02-26T03:44:33;8.42;83.48
66213;SHT31;53015;50.046;8.238;2024-02-26T03:47:00;8.15;82.75
66213;SHT31;53015;50.046;8.238;2024-02-26T03:49:25;8.05;83.74
66213;SHT31;53015;50.046;8.238;2024-02-26T03:51:51;8.11;84.89
66213;SHT31;53015;50.046;8.238;2024-02-26T03:54:16;8.15;84.81
66213;SHT31;53015;50.046;8.238;2024-02-26T03:56:42;8.08;84.98
66213;SHT31;53015;50.046;8.238;2024-02-26T03:59:07;8.15;85.13
66213;SHT31;53015;50.046;8.238;2024-02-26T04:01:33;8.08;85.10
66213;SHT31;53015;50.046;8.238;2024-02-26T04:04:00;8.01;85.88
66213;SHT31;53015;50.046;8.238;2024-02-26T04:06:25;7.86;86.57
66213;SHT31;53015;50.046;8.238;2024-02-26T04:08:51;7.84;86.67
66213;SHT31;53015;50.046;8.238;2024-02-26T04:11:16;7.72;86.18
66213;SHT31;53015;50.046;8.238;2024-02-26T04:13:41;7.65;85.91
66213;SHT31;53015;50.046;8.238;2024-02-26T04:16:07;7.59;86.74
66213;SHT31;53015;50.046;8.238;2024-02-26T04:18:33;7.48;86.50
66213;SHT31;53015;50.046;8.238;2024-02-26T04:20:59;7.41;87.30
66213;SHT31;53015;50.046;8.238;2024-02-26T04:23:25;7.29;88.01
66213;SHT31;53015;50.046;8.238;2024-02-26T04:25:51;7.54;88.06
66213;SHT31;53015;50.046;8.238;2024-02-26T04:28:16;7.36;88.36
66213;SHT31;53015;50.046;8.238;2024-02-26T04:30:42;7.39;88.30
66213;SHT31;53015;50.046;8.238;2024-02-26T04:33:07;7.22;88.60
66213;SHT31;53015;50.046;8.238;2024-02-26T04:35:33;7.27;88.97
66213;SHT31;53015;50.046;8.238;2024-02-26T04:38:00;7.21;89.22
66213;SHT31;53015;50.046;8.238;2024-02-26T04:40:25;7.17;89.87
66213;SHT31;53015;50.046;8.238;2024-02-26T04:42:50;7.28;89.37
66213;SHT31;53015;50.046;8.238;2024-02-26T04:45:16;7.39;89.41
66213;SHT31;53015;50.046;8.238;2024-02-26T04:47:41;7.19;89.48
66213;SHT31;53015;50.046;8.238;2024-02-26T04:50:07;7.15;89.04
66213;SHT31;53015;50.046;8.238;2024-02-26T04:52:33;7.12;90.22
66213;SHT31;53015;50.046;8.238;2024-02-26T04:55:00;7.31;90.36
66213;SHT31;53015;50.046;8.238;2024-02-26T04:57:25;7.21;89.97
66213;SHT31;53015;50.046;8.238;2024-02-26T04:59:50;7.27;90.68
66213;SHT31;53015;50.046;8.238;2024-02-26T05:02:16;7.12;90.95
66213;SHT31;53015;50.046;8.238;2024-02-26T05:04:42;7.08;91.27
66213;SHT31;53015;50.046;8.238;2024-02-26T05:07:07;7.08;91.23
66213;SHT31;53015;50.046;8.238;2024-02-26T05:09:32;6.94;91.45
66213;SHT31;53015;50.046;8.238;2024-02-26T05:11:59;6.97;91.77
66213;SHT31;53015;50.046;8.238;2024-02-26T05:14:25;6.98;91.88
66213;SHT31;53015;50.046;8.238;2024-02-26T05:16:50;6.96;91.72
66213;SHT31;53015;50.046;8.238;2024-02-26T05:19:16;6.96;91.81
66213;SHT31;53015;50.046;8.238;2024-02-26T05:21:41;7.01;91.64
66213;SHT31;53015;50.046;8.238;2024-02-26T05:24:07;7.01;91.71
66213;SHT31;53015;50.046;8.238;2024-02-26T05:26:32;7.11;92.23
66213;SHT31;53015;50.046;8.238;2024-02-26T05:28:59;7.15;91.51
66213;SHT31;53015;50.046;8.238;2024-02-26T05:31:25;7.17;91.55
66213;SHT31;53015;50.046;8.238;2024-02-26T05:33:51;7.25;91.74
66213;SHT31;53015;50.046;8.238;2024-02-26T05:36:20;7.25;91.24
66213;SHT31;53015;50.046;8.238;2024-02-26T05:38:46;7.31;91.34
66213;SHT31;53015;50.046;8.238;2024-02-26T05:41:11;7.32;91.24
66213;SHT31;53015;50.046;8.238;2024-02-26T05:43:36;7.29;91.13
66213;SHT31;53015;50.046;8.238;2024-02-26T05:46:03;7.27;91.37
66213;SHT31;53015;50.046;8.238;2024-02-26T05:48:29;7.21;91.81
66213;SHT31;53015;50.046;8.238;2024-02-26T05:50:54;7.12;92.48
66213;SHT31;53015;50.046;8.238;2024-02-26T05:53:20;6.98;93.23
66213;SHT31;53015;50.046;8.238;2024-02-26T05:55:45;6.97;93.20
66213;SHT31;53015;50.046;8.238;2024-02-26T05:58:10;7.10;93.18
66213;SHT31;53015;50.046;8.238;2024-02-26T06:00:36;7.05;93.51
66213;SHT31;53015;50.046;8.238;2024-02-26T06:03:03;6.98;93.36
66213;SHT31;53015;50.046;8.238;2024-02-26T06:05:28;6.97;93.64
66213;SHT31;53015;50.046;8.238;2024-02-26T06:07:54;7.04;93.15
66213;SHT31;53015;50.046;8.238;2024-02-26T06:10:20;6.97;93.29
66213;SHT31;53015;50.046;8.238;2024-02-26T06:12:45;6.90;93.47
66213;SHT31;53015;50.046;8.238;2024-02-26T06:15:11;6.91;93.70
66213;SHT31;53015;50.046;8.238;2024-02-26T06:17:36;6.81;93.49
66213;SHT31;53015;50.046;8.238;2024-02-26T06:20:04;6.90;93.45
66213;SHT31;53015;50.046;8.238;2024-02-26T06:22:30;6.89;93.63
66213;SHT31;53015;50.046;8.238;2024-02-26T06:24:55;6.89;93.97
66213;SHT31;53015;50.046;8.238;2024-02-26T06:27:21;6.81;93.83
66213;SHT31;53015;50.046;8.238;2024-02-26T06:29:46;6.84;94.21
66213;SHT31;53015;50.046;8.238;2024-02-26T06:32:12;6.90;94.20
66213;SHT31;53015;50.046;8.238;2024-02-26T06:34:37;6.98;93.96
66213;SHT31;53015;50.046;8.238;2024-02-26T06:37:04;7.04;93.64
66213;SHT31;53015;50.046;8.238;2024-02-26T06:39:30;6.93;93.44
66213;SHT31;53015;50.046;8.238;2024-02-26T06:41:55;6.93;93.56
66213;SHT31;53015;50.046;8.238;2024-02-26T06:44:21;6.86;93.76
66213;SHT31;53015;50.046;8.238;2024-02-26T06:46:46;6.84;94.00
66213;SHT31;53015;50.046;8.238;2024-02-26T06:49:12;6.73;93.49
66213;SHT31;53015;50.046;8.238;2024-02-26T06:51:37;6.69;93.18
66213;SHT31;53015;50.046;8.238;2024-02-26T06:54:04;6.75;93.56
66213;SHT31;53015;50.046;8.238;2024-02-26T06:56:30;6.86;93.40
66213;SHT31;53015;50.046;8.238;2024-02-26T06:58:55;6.69;93.12
66213;SHT31;53015;50.046;8.238;2024-02-26T07:01:21;6.73;93.23
66213;SHT31;53015;50.046;8.238;2024-02-26T07:03:46;6.68;93.13
66213;SHT31;53015;50.046;8.238;2024-02-26T07:06:12;6.77;93.33
66213;SHT31;53015;50.046;8.238;2024-02-26T07:08:38;6.69;93.15
66213;SHT31;53015;50.046;8.238;2024-02-26T07:11:07;6.65;93.55
66213;SHT31;53015;50.046;8.238;2024-02-26T07:13:32;6.68;93.21
66213;SHT31;53015;50.046;8.238;2024-02-26T07:15:58;6.73;93.44
66213;SHT31;53015;50.046;8.238;2024-02-26T07:18:23;6.83;93.50
66213;SHT31;53015;50.046;8.238;2024-02-26T07:20:48;6.80;92.95
66213;SHT31;53015;50.046;8.238;2024-02-26T07:23:14;6.83;93.41
66213;SHT31;53015;50.046;8.238;2024-02-26T07:25:39;6.87;93.04
66213;SHT31;53015;50.046;8.238;2024-02-26T07:28:06;6.79;93.23
66213;SHT31;53015;50.046;8.238;2024-02-26T07:30:32;6.76;93.31
66213;SHT31;53015;50.046;8.238;2024-02-26T07:32:58;6.76;93.28
66213;SHT31;53015;50.046;8.238;2024-02-26T07:35:23;6.86;93.32
66213;SHT31;53015;50.046;8.238;2024-02-26T07:37:49;6.94;93.24
66213;SHT31;53015;50.046;8.238;2024-02-26T07:40:14;7.00;92.63
66213;SHT31;53015;50.046;8.238;2024-02-26T07:42:40;6.87;92.60
66213;SHT31;53015;50.046;8.238;2024-02-26T07:45:08;6.81;92.74
66213;SHT31;53015;50.046;8.238;2024-02-26T07:47:33;6.79;93.40
66213;SHT31;53015;50.046;8.238;2024-02-26T07:49:59;6.91;92.93
66213;SHT31;53015;50.046;8.238;2024-02-26T07:52:24;6.90;93.28
66213;SHT31;53015;50.046;8.238;2024-02-26T07:54:50;6.96;92.40
66213;SHT31;53015;50.046;8.238;2024-02-26T07:57:15;7.12;92.41
66213;SHT31;53015;50.046;8.238;2024-02-26T07:59:41;7.18;92.91
66213;SHT31;53015;50.046;8.238;2024-02-26T08:02:07;7.18;91.55
66213;SHT31;53015;50.046;8.238;2024-02-26T08:04:33;7.08;92.29
66213;SHT31;53015;50.046;8.238;2024-02-26T08:06:58;7.10;92.12
66213;SHT31;53015;50.046;8.238;2024-02-26T08:09:24;7.04;93.11
66213;SHT31;53015;50.046;8.238;2024-02-26T08:11:49;7.15;92.13
66213;SHT31;53015;50.046;8.238;2024-02-26T08:14:15;7.18;92.21
66213;SHT31;53015;50.046;8.238;2024-02-26T08:16:40;7.11;91.96
66213;SHT31;53015;50.046;8.238;2024-02-26T08:19:07;7.18;92.22
66213;SHT31;53015;50.046;8.238;2024-02-26T08:21:32;7.21;91.46
66213;SHT31;53015;50.046;8.238;2024-02-26T08:23:58;7.28;91.18
66213;SHT31;53015;50.046;8.238;2024-02-26T08:26:23;7.25;91.70
66213;SHT31;53015;50.046;8.238;2024-02-26T08:28:49;7.27;91.39
66213;SHT31;53015;50.046;8.238;2024-02-26T08:31:14;7.29;91.72
66213;SHT31;53015;50.046;8.238;2024-02-26T08:33:40;7.46;91.46
66213;SHT31;53015;50.046;8.238;2024-02-26T08:36:07;7.69;91.49
66213;SHT31;53015;50.046;8.238;2024-02-26T08:38:33;7.70;90.86
66213;SHT31;53015;50.046;8.238;2024-02-26T08:40:58;7.86;91.18
66213;SHT31;53015;50.046;8.238;2024-02-26T08:43:24;7.76;91.15
66213;SHT31;53015;50.046;8.238;2024-02-26T08:45:49;7.61;91.87
66213;SHT31;53015;50.046;8.238;2024-02-26T08:48:15;7.52;91.00
66213;SHT31;53015;50.046;8.238;2024-02-26T08:50:40;7.62;91.27
66213;SHT31;53015;50.046;8.238;2024-02-26T08:53:07;7.63;91.40
66213;SHT31;53015;50.046;8.238;2024-02-26T08:55:33;7.56;91.66
66213;SHT31;53015;50.046;8.238;2024-02-26T08:57:58;7.58;91.74
66213;SHT31;53015;50.046;8.238;2024-02-26T09:00:24;7.72;92.21
66213;SHT31;53015;50.046;8.238;2024-02-26T09:02:49;7.46;91.84
66213;SHT31;53015;50.046;8.238;2024-02-26T09:05:14;7.69;92.32
66213;SHT31;53015;50.046;8.238;2024-02-26T09:07:40;7.52;92.05
66213;SHT31;53015;50.046;8.238;2024-02-26T09:10:08;7.45;91.72
66213;SHT31;53015;50.046;8.238;2024-02-26T09:12:33;7.49;92.45
66213;SHT31;53015;50.046;8.238;2024-02-26T09:14:59;7.52;93.08
66213;SHT31;53015;50.046;8.238;2024-02-26T09:17:24;7.56;92.00
66213;SHT31;53015;50.046;8.238;2024-02-26T09:19:50;7.55;92.72
66213;SHT31;53015;50.046;8.238;2024-02-26T09:22:15;7.35;93.09
66213;SHT31;53015;50.046;8.238;2024-02-26T09:24:41;7.41;93.22
66213;SHT31;53015;50.046;8.238;2024-02-26T09:27:08;7.54;93.18
66213;SHT31;53015;50.046;8.238;2024-02-26T09:29:35;7.65;92.28
66213;SHT31;53015;50.046;8.238;2024-02-26T09:32:00;7.49;92.59
66213;SHT31;53015;50.046;8.238;2024-02-26T09:34:26;7.44;92.94
66213;SHT31;53015;50.046;8.238;2024-02-26T09:36:51;7.41;93.15
66213;SHT31;53015;50.046;8.238;2024-02-26T09:39:17;7.66;92.97
66213;SHT31;53015;50.046;8.238;2024-02-26T09:41:42;7.89;92.48
66213;SHT31;53015;50.046;8.238;2024-02-26T09:44:12;7.80;91.88
66213;SHT31;53015;50.046;8.238;2024-02-26T09:46:40;7.79;91.23
66213;SHT31;53015;50.046;8.238;2024-02-26T09:49:06;7.87;92.01
66213;SHT31;53015;50.046;8.238;2024-02-26T09:51:33;7.98;91.93
66213;SHT31;53015;50.046;8.238;2024-02-26T09:53:59;8.15;91.42
66213;SHT31;53015;50.046;8.238;2024-02-26T09:56:25;8.10;91.01
66213;SHT31;53015;50.046;8.238;2024-02-26T09:58:52;8.18;90.56
66213;SHT31;53015;50.046;8.238;2024-02-26T10:01:19;8.49;90.96
66213;SHT31;53015;50.046;8.238;2024-02-26T10:03:50;8.70;90.04
66213;SHT31;53015;50.046;8.238;2024-02-26T10:06:17;8.55;90.02
66213;SHT31;53015;50.046;8.238;2024-02-26T10:08:43;8.44;89.63
66213;SHT31;53015;50.046;8.238;2024-02-26T10:11:08;8.50;89.50
66213;SHT31;53015;50.046;8.238;2024-02-26T10:13:35;8.65;89.50
66213;SHT31;53015;50.046;8.238;2024-02-26T10:16:01;8.84;88.30
66213;SHT31;53015;50.046;8.238;2024-02-26T10:18:27;8.87;88.79
66213;SHT31;53015;50.046;8.238;2024-02-26T10:21:00;8.76;88.55
66213;SHT31;53015;50.046;8.238;2024-02-26T10:23:25;8.88;88.89
66213;SHT31;53015;50.046;8.238;2024-02-26T10:25:52;9.24;89.25
66213;SHT31;53015;50.046;8.238;2024-02-26T10:28:18;9.13;87.08
66213;SHT31;53015;50.046;8.238;2024-02-26T10:30:44;9.10;88.23
66213;SHT31;53015;50.046;8.238;2024-02-26T10:33:10;9.03;87.18
66213;SHT31;53015;50.046;8.238;2024-02-26T10:35:36;8.79;87.57
66213;SHT31;53015;50.046;8.238;2024-02-26T10:38:02;8.80;87.84
66213;SHT31;53015;50.046;8.238;2024-02-26T10:40:28;8.93;86.70
66213;SHT31;53015;50.046;8.238;2024-02-26T10:42:53;8.79;87.63
66213;SHT31;53015;50.046;8.238;2024-02-26T10:45:19;8.94;87.56
66213;SHT31;53015;50.046;8.238;2024-02-26T10:47:44;8.91;87.12
66213;SHT31;53015;50.046;8.238;2024-02-26T10:50:12;9.15;87.44
66213;SHT31;53015;50.046;8.238;2024-02-26T10:52:40;9.05;88.00
66213;SHT31;53015;50.046;8.238;2024-02-26T10:55:07;9.13;86.89
66213;SHT31;53015;50.046;8.238;2024-02-26T10:57:35;8.77;87.08
66213;SHT31;53015;50.046;8.238;2024-02-26T11:00:02;8.63;88.84
66213;SHT31;53015;50.046;8.238;2024-02-26T11:02:28;8.76;88.66
66213;SHT31;53015;50.046;8.238;2024-02-26T11:04:54;8.87;88.15
66213;SHT31;53015;50.046;8.238;2024-02-26T11:07:20;9.31;87.15
66213;SHT31;53015;50.046;8.238;2024-02-26T11:09:48;9.14;86.96
66213;SHT31;53015;50.046;8.238;2024-02-26T11:12:14;9.42;87.20
66213;SHT31;53015;50.046;8.238;2024-02-26T11:14:40;9.62;87.48
66213;SHT31;53015;50.046;8.238;2024-02-26T11:17:07;9.58;86.36
66213;SHT31;53015;50.046;8.238;2024-02-26T11:19:35;9.46;85.96
66213;SHT31;53015;50.046;8.238;2024-02-26T11:22:01;9.41;86.19
66213;SHT31;53015;50.046;8.238;2024-02-26T11:24:27;9.63;85.93
66213;SHT31;53015;50.046;8.238;2024-02-26T11:26:55;9.69;85.76
66213;SHT31;53015;50.046;8.238;2024-02-26T11:29:22;9.62;85.54
66213;SHT31;53015;50.046;8.238;2024-02-26T11:31:48;9.82;85.44
66213;SHT31;53015;50.046;8.238;2024-02-26T11:34:14;9.86;85.67
66213;SHT31;53015;50.046;8.238;2024-02-26T11:36:40;10.21;85.20
66213;SHT31;53015;50.046;8.238;2024-02-26T11:39:06;10.27;85.05
66213;SHT31;53015;50.046;8.238;2024-02-26T11:41:32;10.11;86.57
66213;SHT31;53015;50.046;8.238;2024-02-26T11:44:01;10.44;85.98
66213;SHT31;53015;50.046;8.238;2024-02-26T11:46:27;10.20;85.53
66213;SHT31;53015;50.046;8.238;2024-02-26T11:48:55;10.46;85.47
66213;SHT31;53015;50.046;8.238;2024-02-26T11:51:25;10.82;84.46
66213;SHT31;53015;50.046;8.238;2024-02-26T11:53:51;10.89;85.33
66213;SHT31;53015;50.046;8.238;2024-02-26T11:56:23;10.75;83.64
66213;SHT31;53015;50.046;8.238;2024-02-26T11:58:53;10.40;82.88
66213;SHT31;53015;50.046;8.238;2024-02-26T12:01:43;10.63;83.71
66213;SHT31;53015;50.046;8.238;2024-02-26T12:04:12;11.09;83.53
66213;SHT31;53015;50.046;8.238;2024-02-26T12:06:43;11.01;81.93
66213;SHT31;53015;50.046;8.238;2024-02-26T12:09:09;10.96;82.35
66213;SHT31;53015;50.046;8.238;2024-02-26T12:11:37;11.06;81.92
66213;SHT31;53015;50.046;8.238;2024-02-26T12:14:03;10.96;83.07
66213;SHT31;53015;50.046;8.238;2024-02-26T12:16:35;11.24;82.42
66213;SHT31;53015;50.046;8.238;2024-02-26T12:19:04;11.24;81.44
66213;SHT31;53015;50.046;8.238;2024-02-26T12:21:30;10.90;82.91
66213;SHT31;53015;50.046;8.238;2024-02-26T12:23:55;10.77;82.61
66213;SHT31;53015;50.046;8.238;2024-02-26T12:26:21;10.71;82.73
66213;SHT31;53015;50.046;8.238;2024-02-26T12:28:47;10.95;82.79
66213;SHT31;53015;50.046;8.238;2024-02-26T12:31:13;10.84;82.60
66213;SHT31;53015;50.046;8.238;2024-02-26T12:33:38;10.69;83.49
66213;SHT31;53015;50.046;8.238;2024-02-26T12:36:06;10.77;83.61
66213;SHT31;53015;50.046;8.238;2024-02-26T12:38:31;11.10;83.69
66213;SHT31;53015;50.046;8.238;2024-02-26T12:40:57;10.90;82.81
66213;SHT31;53015;50.046;8.238;2024-02-26T12:43:22;10.83;82.55
66213;SHT31;53015;50.046;8.238;2024-02-26T12:45:48;10.59;83.00
66213;SHT31;53015;50.046;8.238;2024-02-26T12:48:14;10.49;83.58
66213;SHT31;53015;50.046;8.238;2024-02-26T12:50:39;10.77;84.01
66213;SHT31;53015;50.046;8.238;2024-02-26T12:53:06;10.77;83.49
66213;SHT31;53015;50.046;8.238;2024-02-26T12:55:33;10.82;83.69
66213;SHT31;53015;50.046;8.238;2024-02-26T12:57:58;11.13;83.53
66213;SHT31;53015;50.046;8.238;2024-02-26T13:00:27;11.07;82.94
66213;SHT31;53015;50.046;8.238;2024-02-26T13:02:53;10.72;83.61
66213;SHT31;53015;50.046;8.238;2024-02-26T13:05:19;10.93;83.23
66213;SHT31;53015;50.046;8.238;2024-02-26T13:07:46;10.65;83.30
66213;SHT31;53015;50.046;8.238;2024-02-26T13:10:13;10.84;82.70
66213;SHT31;53015;50.046;8.238;2024-02-26T13:12:43;10.95;82.88
66213;SHT31;53015;50.046;8.238;2024-02-26T13:15:14;11.27;82.03
66213;SHT31;53015;50.046;8.238;2024-02-26T13:17:39;11.44;81.54
66213;SHT31;53015;50.046;8.238;2024-02-26T13:20:07;11.64;80.94
66213;SHT31;53015;50.046;8.238;2024-02-26T13:22:33;11.38;82.00
66213;SHT31;53015;50.046;8.238;2024-02-26T13:24:59;11.03;81.83
66213;SHT31;53015;50.046;8.238;2024-02-26T13:27:26;10.84;82.70
66213;SHT31;53015;50.046;8.238;2024-02-26T13:30:05;10.63;83.26
66213;SHT31;53015;50.046;8.238;2024-02-26T13:32:34;10.80;83.83
66213;SHT31;53015;50.046;8.238;2024-02-26T13:35:07;10.68;83.50
66213;SHT31;53015;50.046;8.238;2024-02-26T13:37:33;10.73;83.45
66213;SHT31;53015;50.046;8.238;2024-02-26T13:39:59;10.79;83.44
66213;SHT31;53015;50.046;8.238;2024-02-26T13:42:26;11.09;83.69
66213;SHT31;53015;50.046;8.238;2024-02-26T13:44:52;11.11;82.44
66213;SHT31;53015;50.046;8.238;2024-02-26T13:47:17;11.20;82.53
66213;SHT31;53015;50.046;8.238;2024-02-26T13:49:43;11.07;82.05
66213;SHT31;53015;50.046;8.238;2024-02-26T13:52:08;11.24;82.75
66213;SHT31;53015;50.046;8.238;2024-02-26T13:54:34;11.31;82.45
66213;SHT31;53015;50.046;8.238;2024-02-26T13:56:59;11.66;81.57
66213;SHT31;53015;50.046;8.238;2024-02-26T13:59:26;11.51;81.33
66213;SHT31;53015;50.046;8.238;2024-02-26T14:01:52;11.26;81.69
66213;SHT31;53015;50.046;8.238;2024-02-26T14:04:17;11.16;81.85
66213;SHT31;53015;50.046;8.238;2024-02-26T14:06:43;11.10;82.42
66213;SHT31;53015;50.046;8.238;2024-02-26T14:09:08;11.21;82.10
66213;SHT31;53015;50.046;8.238;2024-02-26T14:11:34;11.26;82.79
66213;SHT31;53015;50.046;8.238;2024-02-26T14:13:59;11.23;82.28
66213;SHT31;53015;50.046;8.238;2024-02-26T14:16:26;11.30;82.08
66213;SHT31;53015;50.046;8.238;2024-02-26T14:18:52;11.38;82.13
66213;SHT31;53015;50.046;8.238;2024-02-26T14:21:17;11.28;82.37
66213;SHT31;53015;50.046;8.238;2024-02-26T14:23:43;11.35;81.82
66213;SHT31;53015;50.046;8.238;2024-02-26T14:26:08;11.39;82.08
66213;SHT31;53015;50.046;8.238;2024-02-26T14:28:34;11.37;82.09
66213;SHT31;53015;50.046;8.238;2024-02-26T14:30:59;10.97;82.69
66213;SHT31;53015;50.046;8.238;2024-02-26T14:33:26;10.75;83.15
66213;SHT31;53015;50.046;8.238;2024-02-26T14:35:52;10.82;83.76
66213;SHT31;53015;50.046;8.238;2024-02-26T14:38:17;10.97;83.29
66213;SHT31;53015;50.046;8.238;2024-02-26T14:40:43;11.04;82.78
66213;SHT31;53015;50.046;8.238;2024-02-26T14:43:10;11.41;82.44
66213;SHT31;53015;50.046;8.238;2024-02-26T14:45:36;11.38;81.64
66213;SHT31;53015;50.046;8.238;2024-02-26T14:48:01;11.55;81.80
66213;SHT31;53015;50.046;8.238;2024-02-26T14:50:28;11.76;81.51
66213;SHT31;53015;50.046;8.238;2024-02-26T14:52:54;11.97;81.22
66213;SHT31;53015;50.046;8.238;2024-02-26T14:55:19;11.96;81.60
66213;SHT31;53015;50.046;8.238;2024-02-26T14:57:45;11.55;80.84
66213;SHT31;53015;50.046;8.238;2024-02-26T15:00:11;11.35;81.11
66213;SHT31;53015;50.046;8.238;2024-02-26T15:02:36;11.17;82.23
66213;SHT31;53015;50.046;8.238;2024-02-26T15:05:02;11.18;82.51
66213;SHT31;53015;50.046;8.238;2024-02-26T15:07:29;11.26;82.24
66213;SHT31;53015;50.046;8.238;2024-02-26T15:09:55;11.28;82.30
66213;SHT31;53015;50.046;8.238;2024-02-26T15:12:20;11.26;82.10
66213;SHT31;53015;50.046;8.238;2024-02-26T15:14:46;11.13;82.31
66213;SHT31;53015;50.046;8.238;2024-02-26T15:17:11;11.28;82.79
66213;SHT31;53015;50.046;8.238;2024-02-26T15:19:37;11.13;82.00
66213;SHT31;53015;50.046;8.238;2024-02-26T15:22:03;11.06;82.51
66213;SHT31;53015;50.046;8.238;2024-02-26T15:24:29;11.09;82.27
66213;SHT31;53015;50.046;8.238;2024-02-26T15:26:55;11.09;81.72
66213;SHT31;53015;50.046;8.238;2024-02-26T15:29:20;11.14;81.99
66213;SHT31;53015;50.046;8.238;2024-02-26T15:31:46;11.14;82.38
66213;SHT31;53015;50.046;8.238;2024-02-26T15:34:11;11.37;81.91